createdAt,value
2023-03-06T04:47:02.306Z,55.84
2023-03-06T04:52:04.464Z,56.65
2023-03-06T04:57:06.497Z,56.79
2023-03-06T05:02:08.627Z,57.18
2023-03-06T05:07:10.841Z,57.54
2023-03-06T05:12:12.910Z,58.74
2023-03-06T05:17:14.998Z,58.27
2023-03-06T05:22:17.166Z,58.83
2023-03-06T05:27:19.296Z,59.27
2023-03-06T05:32:22.384Z,60.03
2023-03-06T05:37:24.583Z,60.90
2023-03-06T05:42:28.730Z,61.25
2023-03-06T05:47:32.084Z,61.86
2023-03-06T05:52:34.168Z,62.38
2023-03-06T05:57:36.304Z,63.21
2023-03-06T06:02:38.376Z,63.51
2023-03-06T06:07:41.308Z,63.90
2023-03-06T06:12:43.592Z,64.09
2023-03-06T06:17:45.660Z,64.77
2023-03-06T06:22:47.882Z,64.75
2023-03-06T06:27:50.149Z,65.23
2023-03-06T06:32:52.265Z,65.55
2023-03-06T06:37:54.342Z,65.96
2023-03-06T06:42:56.373Z,65.97
2023-03-06T06:47:58.597Z,66.13
2023-03-06T06:53:00.708Z,66.17
2023-03-06T06:58:02.887Z,66.08
2023-03-06T07:03:04.980Z,66.67
2023-03-06T07:08:07.028Z,66.01
2023-03-06T07:13:09.077Z,65.53
2023-03-06T07:18:11.147Z,65.68
2023-03-06T07:23:13.580Z,65.86
2023-03-06T07:28:18.544Z,65.50
2023-03-06T07:33:21.413Z,65.62
2023-03-06T07:38:23.505Z,65.84
2023-03-06T07:43:25.601Z,66.09
2023-03-06T07:48:27.914Z,66.46
2023-03-06T07:53:30.720Z,66.12
2023-03-06T07:58:32.732Z,65.34
2023-03-06T08:03:34.942Z,65.99
2023-03-06T08:08:39.580Z,65.27
2023-03-06T08:13:41.885Z,65.00
2023-03-06T08:18:46.254Z,64.65
2023-03-06T08:23:48.705Z,64.88
2023-03-06T08:28:52.268Z,65.47
2023-03-06T08:33:54.828Z,65.67
2023-03-06T08:38:57.595Z,65.78
2023-03-06T08:43:59.936Z,65.72
2023-03-06T08:49:02.415Z,65.43
2023-03-06T08:54:04.515Z,65.83
2023-03-06T08:59:09.446Z,66.09
2023-03-06T09:04:11.925Z,66.05
2023-03-06T09:09:13.995Z,64.59
2023-03-06T09:14:16.033Z,63.58
2023-03-06T09:19:18.085Z,63.09
2023-03-06T09:24:20.280Z,61.50
2023-03-06T09:29:22.393Z,59.35
2023-03-06T09:34:24.473Z,59.29
2023-03-06T09:39:27.228Z,57.21
2023-03-06T09:44:32.270Z,56.32
2023-03-06T09:49:53.154Z,54.28
2023-03-06T09:54:58.763Z,52.61
2023-03-06T10:00:07.343Z,51.96
2023-03-06T10:05:21.474Z,52.23
2023-03-06T10:10:27.180Z,51.66
2023-03-06T10:15:34.570Z,52.78
2023-03-06T10:20:47.405Z,53.17
2023-03-06T10:26:03.125Z,54.26
2023-03-06T10:31:17.525Z,54.19
2023-03-06T10:36:21.411Z,54.58
2023-03-06T10:41:32.438Z,56.50
2023-03-06T10:46:46.966Z,56.81
2023-03-06T10:52:15.060Z,57.73
2023-03-06T10:57:18.617Z,58.30
2023-03-06T11:02:32.085Z,59.16
2023-03-06T11:07:35.991Z,58.80
2023-03-06T11:12:39.684Z,58.55
2023-03-06T11:17:49.378Z,58.67
2023-03-06T11:23:25.158Z,58.22
2023-03-06T11:28:34.993Z,58.00
2023-03-06T11:33:47.219Z,58.11
2023-03-06T11:38:51.319Z,57.29
2023-03-06T11:44:00.680Z,57.50
2023-03-06T11:49:29.061Z,57.37
2023-03-06T11:54:32.018Z,56.98
2023-03-06T12:00:12.456Z,57.11
2023-03-06T12:05:17.363Z,57.95
2023-03-06T12:10:33.635Z,57.19
2023-03-06T12:16:14.625Z,57.04
2023-03-06T12:21:40.221Z,56.35
2023-03-06T12:27:02.648Z,56.49
2023-03-06T12:32:43.699Z,56.61
2023-03-06T12:38:11.877Z,57.12
2023-03-06T12:43:29.225Z,57.51
2023-03-06T12:48:36.344Z,58.13
2023-03-06T12:53:40.591Z,59.06
2023-03-06T12:58:54.302Z,59.22
2023-03-06T13:04:08.099Z,59.92
2023-03-06T13:09:44.617Z,60.39
2023-03-06T13:14:54.082Z,60.48
2023-03-06T13:20:15.481Z,60.99
2023-03-06T13:25:17.698Z,61.36
2023-03-06T13:30:36.784Z,61.30
2023-03-06T13:35:41.944Z,61.09
2023-03-06T13:40:44.035Z,61.29
2023-03-06T13:45:48.216Z,61.28
2023-03-06T13:50:52.559Z,60.88
2023-03-06T13:56:22.071Z,60.91
2023-03-06T14:01:45.622Z,61.65
2023-03-06T14:06:53.369Z,59.55
2023-03-06T14:12:05.106Z,58.18
2023-03-06T14:17:15.194Z,58.74
2023-03-06T14:22:22.485Z,58.79
2023-03-06T14:27:42.180Z,59.08
2023-03-06T14:32:45.019Z,59.39
2023-03-06T14:37:53.684Z,60.28
2023-03-06T14:43:22.603Z,60.81
2023-03-06T14:48:27.699Z,61.74
2023-03-06T14:53:33.417Z,61.89
2023-03-06T14:58:57.547Z,62.67
2023-03-06T15:04:01.309Z,62.73
2023-03-06T15:09:21.393Z,62.68
2023-03-06T15:14:41.571Z,62.58
2023-03-06T15:19:48.652Z,62.66
2023-03-06T15:24:51.097Z,62.42
2023-03-06T15:29:53.187Z,62.93
2023-03-06T15:35:26.371Z,63.33
2023-03-06T15:40:31.110Z,63.54
2023-03-06T15:45:34.932Z,63.99
2023-03-06T15:50:37.066Z,64.47
2023-03-06T15:55:39.251Z,64.92
2023-03-06T16:00:42.440Z,65.19
2023-03-06T16:05:44.857Z,65.28
2023-03-06T16:10:47.890Z,65.76
2023-03-06T16:15:50.965Z,65.95
2023-03-06T16:20:53.314Z,66.54
2023-03-06T16:25:56.030Z,67.03
2023-03-06T16:30:58.221Z,67.38
2023-03-06T16:36:00.253Z,67.51
2023-03-06T16:41:02.411Z,67.74
2023-03-06T16:46:07.149Z,67.74
2023-03-06T16:51:13.264Z,67.33
2023-03-06T16:56:19.242Z,67.16
2023-03-06T17:01:21.438Z,67.19
2023-03-06T17:06:23.869Z,67.80
2023-03-06T17:11:26.574Z,67.86
2023-03-06T17:16:28.633Z,68.14
2023-03-06T17:21:30.737Z,68.72
2023-03-06T17:26:32.800Z,68.80
2023-03-06T17:31:34.961Z,69.01
2023-03-06T17:36:37.007Z,68.93
2023-03-06T17:41:39.177Z,69.15
2023-03-06T17:46:41.296Z,69.19
2023-03-06T17:51:43.537Z,68.95
2023-03-06T17:56:45.829Z,69.00
2023-03-06T18:01:47.953Z,68.95
2023-03-06T18:06:50.077Z,68.95
2023-03-06T18:11:52.219Z,68.93
2023-03-06T18:16:54.482Z,68.97
2023-03-06T18:21:56.616Z,68.96
2023-03-06T18:26:58.712Z,68.92
2023-03-06T18:32:01.940Z,68.94
2023-03-06T18:37:04.186Z,68.92
2023-03-06T18:42:06.593Z,69.07
2023-03-06T18:47:08.718Z,70.11
2023-03-06T18:52:11.657Z,70.54
2023-03-06T18:57:13.870Z,71.39
2023-03-06T19:02:15.959Z,72.37
2023-03-06T19:07:18.020Z,72.64
2023-03-06T19:12:20.215Z,73.02
2023-03-06T19:17:24.887Z,72.67
2023-03-06T19:22:27.122Z,72.06
2023-03-06T19:27:30.128Z,72.68
2023-03-06T19:32:33.073Z,73.08
2023-03-06T19:37:36.419Z,73.67
2023-03-06T19:42:38.708Z,73.78
2023-03-06T19:47:40.769Z,74.02
2023-03-06T19:52:42.865Z,73.66
2023-03-06T19:57:45.376Z,74.11
2023-03-06T20:02:47.467Z,74.39
2023-03-06T20:07:49.991Z,74.28
2023-03-06T20:12:52.044Z,74.98
2023-03-06T20:17:56.455Z,74.83
2023-03-06T20:23:02.585Z,74.91
2023-03-06T20:28:04.850Z,74.67
2023-03-06T20:33:06.902Z,74.82
2023-03-06T20:38:09.642Z,75.13
2023-03-06T20:43:11.702Z,74.94
2023-03-06T20:48:13.785Z,74.96
